Currently 64°F in Pinon Hills, California, USA
64°F
71°F / 49°F
6 mph S
0.00"
Monday, May 20, 2024 6:46 PM PDT

Pinon Hills, California Weather Summary
Last 36 Hours

Temperature Winds Hourly Humidity Dewpoint
Time Report Norm Report Norm Max Gusts Precip. Rpt. Norm Rpt. Norm Pressure
1Mon 06:46 PM  63.5°F  68°F  6 mph S  6 mph  20 mph  0.00"  32%  33%  32°F  36°F  N/A
Mon 06:00 PM  65.9°F  70°F  12 mph SW  6 mph  23 mph  0.00"  31%  30%  33°F  36°F  N/A
Mon 05:00 PM  68.1°F  72°F  10 mph E  6 mph  23 mph  0.00"  35%  27%  39°F  35°F  N/A
Mon 04:00 PM  70.0°F  73°F  11 mph NE  6 mph  23 mph  0.00"  28%  25%  34°F  34°F  N/A
Mon 03:00 PM  70.7°F  73°F  10 mph NE  5 mph  21 mph  0.00"  26%  25%  33°F  34°F  N/A
2Mon 02:00 PM  71.5°F  73°F  9 mph NE  5 mph  21 mph  0.00"  21%  26%  28°F  34°F  N/A
Mon 01:00 PM  70.4°F  72°F  12 mph SE  4 mph  22 mph  0.00"  20%  27%  25°F  35°F  N/A
Mon 12:00 PM  69.5°F  71°F  10 mph NW  5 mph  24 mph  0.00"  19%  29%  24°F  36°F  N/A
Mon 11:00 AM  69.9°F  69°F  10 mph NW  4 mph  23 mph  0.00"  20%  32%  25°F  36°F  N/A
Mon 10:00 AM  67.2°F  66°F  10 mph W  4 mph  19 mph  0.00"  31%  36%  34°F  38°F  N/A
Mon 09:00 AM  64.0°F  64°F  8 mph NW  4 mph  12 mph  0.00"  38%  40%  37°F  38°F  N/A
Mon 08:00 AM  60.6°F  61°F  5 mph S  3 mph  14 mph  0.00"  43%  44%  37°F  38°F  N/A
Mon 07:00 AM  55.9°F  57°F  calm  2 mph  7 mph  0.00"  45%  49%  34°F  37°F  N/A
Mon 06:00 AM  49.2°F  53°F  calm  3 mph  6 mph  0.00"  56%  52%  33°F  35°F  N/A
Mon 05:00 AM  52.6°F  54°F  2 mph SE  3 mph  7 mph  0.00"  54%  51%  36°F  35°F  N/A
Mon 04:00 AM  49.8°F  54°F  2 mph S  3 mph  5 mph  0.00"  61%  49%  36°F  35°F  N/A
3Mon 03:47 AM  49.0°F  55°F  calm  3 mph  3 mph  ----  63%  49%  37°F  35°F  N/A
Mon 03:00 AM  51.2°F  55°F  calm  3 mph  6 mph  0.00"  58%  49%  36°F  35°F  N/A
Mon 02:00 AM  52.0°F  56°F  calm  3 mph  5 mph  0.00"  56%  47%  36°F  35°F  N/A
Mon 01:00 AM  54.6°F  56°F  2 mph SW  3 mph  5 mph  0.00"  63%  46%  42°F  35°F  N/A
Mon 12:00 AM  57.7°F  57°F  calm  3 mph  8 mph  0.00"  57%  45%  42°F  35°F  N/A
Sun 11:00 PM  62.0°F  58°F  5 mph NW  3 mph  14 mph  0.00"  53%  45%  44°F  36°F  N/A
Sun 10:00 PM  63.1°F  59°F  10 mph W  4 mph  14 mph  0.00"  49%  44%  43°F  36°F  N/A
Sun 09:00 PM  63.5°F  61°F  3 mph W  3 mph  9 mph  0.00"  44%  42%  40°F  36°F  N/A
Sun 08:00 PM  66.8°F  63°F  2 mph W  4 mph  15 mph  0.00"  39%  39%  40°F  36°F  N/A
Sun 07:00 PM  69.5°F  67°F  6 mph W  6 mph  18 mph  0.00"  36%  34%  41°F  37°F  N/A
Sun 06:00 PM  74.7°F  70°F  7 mph W  6 mph  18 mph  0.00"  31%  31%  41°F  36°F  N/A
Sun 05:00 PM  76.0°F  72°F  7 mph W  6 mph  21 mph  0.00"  25%  28%  36°F  35°F  N/A
Sun 04:00 PM  77.5°F  73°F  10 mph W  6 mph  21 mph  0.00"  15%  26%  23°F  34°F  N/A
Sun 03:00 PM  77.7°F  73°F  12 mph W  5 mph  24 mph  0.00"  12%  26%  19°F  35°F  N/A
Sun 02:00 PM  78.0°F  73°F  11 mph W  5 mph  21 mph  0.00"  16%  26%  26°F  34°F  N/A
Sun 01:00 PM  77.4°F  72°F  10 mph NW  4 mph  20 mph  0.00"  18%  27%  29°F  35°F  N/A
Sun 12:00 PM  77.4°F  70°F  7 mph NW  5 mph  19 mph  0.00"  16%  29%  27°F  35°F  N/A
Sun 11:00 AM  74.8°F  69°F  9 mph NW  4 mph  18 mph  0.00"  25%  32%  35°F  36°F  N/A
Sun 10:00 AM  71.6°F  66°F  10 mph NW  4 mph  17 mph  0.00"  33%  36%  40°F  37°F  N/A
Sun 09:00 AM  69.4°F  64°F  9 mph NW  4 mph  18 mph  0.00"  34%  40%  38°F  38°F  N/A
Sun 08:00 AM  68.0°F  61°F  8 mph W  3 mph  14 mph  0.00"  28%  44%  32°F  38°F  N/A
Sun 07:00 AM  59.6°F  57°F  calm  2 mph  3 mph  0.00"  30%  49%  27°F  37°F  N/A

  1. Current weather data. No green row appears if the current weather data is also the high or low for the current day.
  2. High temperature for the current day.
  3. Low temperature for the current day.

The Pinon Hills, California weather pages are a service of WeatherCurrents.
Copyright ©2024  WeatherCurrents. All rights reserved. - Submit questions and comments - Privacy Policy

This page automatically refreshes every 10 minutes.